createdAt,value
2022-09-12T00:00:13.581Z,0.48
2022-09-12T00:01:14.625Z,0.13
2022-09-12T00:02:15.615Z,0.28
2022-09-12T00:03:16.565Z,0.23
2022-09-12T00:04:17.532Z,0.36
2022-09-12T00:05:18.572Z,0.5
2022-09-12T00:06:22.796Z,0.76
2022-09-12T00:07:20.550Z,0.34
2022-09-12T00:08:21.592Z,0.24
2022-09-12T00:09:22.554Z,0.62
2022-09-12T00:10:23.629Z,0.56
2022-09-12T00:11:24.572Z,0.64
2022-09-12T00:12:25.582Z,0.64
2022-09-12T00:13:26.562Z,0.8
2022-09-12T00:14:27.547Z,0.7
2022-09-12T00:15:28.586Z,0.81
2022-09-12T00:16:29.626Z,0.77
2022-09-12T00:17:30.581Z,0.95
2022-09-12T00:18:31.562Z,0.63
2022-09-12T00:19:32.821Z,0.66
2022-09-12T00:20:34.605Z,0.77
2022-09-12T00:21:35.603Z,0.62
2022-09-12T00:22:37.649Z,0.75
2022-09-12T00:23:38.589Z,0.56
2022-09-12T00:24:39.561Z,0.74
2022-09-12T00:25:40.669Z,0.72
2022-09-12T00:26:41.843Z,0.58
2022-09-12T00:27:43.626Z,0.53
2022-09-12T00:28:44.698Z,0.63
2022-09-12T00:29:45.574Z,0.63
2022-09-12T00:30:46.585Z,0.81
2022-09-12T00:31:47.609Z,0.56
2022-09-12T00:32:48.627Z,0.36
2022-09-12T00:33:49.596Z,0.42
2022-09-12T00:34:50.623Z,0.51
2022-09-12T00:35:51.612Z,0.57
2022-09-12T00:36:52.601Z,0.56
2022-09-12T00:37:53.639Z,0.62
2022-09-12T00:38:54.711Z,0.72
2022-09-12T00:39:55.644Z,0.48
2022-09-12T00:40:56.610Z,0.15
2022-09-12T00:41:57.631Z,0.4
2022-09-12T00:42:58.700Z,0.61
2022-09-12T00:43:59.613Z,0.28
2022-09-12T00:45:00.605Z,0.32
2022-09-12T00:46:01.682Z,0.16
2022-09-12T00:47:02.601Z,0
2022-09-12T00:48:03.629Z,0
2022-09-12T00:49:04.601Z,0
2022-09-12T00:50:05.678Z,0.32
2022-09-12T00:51:06.609Z,0.23
2022-09-12T00:52:07.613Z,0.49
2022-09-12T00:53:08.622Z,0.42
2022-09-12T00:54:09.640Z,0.61
2022-09-12T00:55:10.631Z,0.56
2022-09-12T00:56:11.649Z,0.51
2022-09-12T00:57:12.652Z,0.65
2022-09-12T00:58:13.614Z,0.63
2022-09-12T00:59:15.664Z,0.34
2022-09-12T01:00:16.756Z,0.37
2022-09-12T01:01:18.790Z,0.57
2022-09-12T01:02:19.675Z,0.59
2022-09-12T01:03:20.627Z,0.39
2022-09-12T01:04:21.665Z,0.69
2022-09-12T01:05:22.671Z,0.58
2022-09-12T01:06:23.642Z,0.46
2022-09-12T01:07:24.640Z,0.46
2022-09-12T01:08:25.671Z,0.57
2022-09-12T01:09:26.642Z,0.38
2022-09-12T01:10:27.648Z,0.48
2022-09-12T01:11:28.666Z,0.23
2022-09-12T01:12:29.662Z,0.18
2022-09-12T01:13:30.653Z,0.15
2022-09-12T01:14:31.686Z,0.27
2022-09-12T01:15:32.721Z,0.43
2022-09-12T01:16:33.735Z,0.56
2022-09-12T01:17:34.688Z,0.53
2022-09-12T01:18:35.673Z,0.6
2022-09-12T01:19:36.675Z,0.43
2022-09-12T01:20:37.706Z,0.63
2022-09-12T01:21:38.669Z,0.5
2022-09-12T01:22:39.696Z,0.6
2022-09-12T01:23:40.665Z,0.59
2022-09-12T01:24:41.689Z,0.62
2022-09-12T01:25:42.678Z,0.47
2022-09-12T01:26:43.697Z,0.61
2022-09-12T01:27:45.828Z,0.33
2022-09-12T01:28:47.678Z,0.57
2022-09-12T01:29:48.674Z,0.38
2022-09-12T01:30:49.684Z,0.27
2022-09-12T01:31:51.715Z,0.37
2022-09-12T01:32:52.757Z,0.35
2022-09-12T01:33:53.704Z,0.29
2022-09-12T01:34:54.680Z,0.49
2022-09-12T01:35:55.695Z,0.34
2022-09-12T01:36:56.678Z,0.37
2022-09-12T01:37:57.708Z,0.52
2022-09-12T01:38:58.700Z,0.56
2022-09-12T01:39:59.725Z,0.57
2022-09-12T01:41:00.732Z,0.5
2022-09-12T01:42:01.749Z,0.48
2022-09-12T01:43:02.761Z,0.61
2022-09-12T01:44:03.695Z,0.71
2022-09-12T01:45:04.757Z,0.57
2022-09-12T01:46:05.823Z,0.59
2022-09-12T01:47:07.704Z,0.44
2022-09-12T01:48:08.704Z,0.36
2022-09-12T01:49:09.697Z,0.25
2022-09-12T01:50:10.913Z,0.33
2022-09-12T01:51:12.707Z,0.22
2022-09-12T01:52:13.748Z,0.28
2022-09-12T01:53:14.723Z,0.19
2022-09-12T01:54:15.742Z,0
2022-09-12T01:55:16.746Z,0.25
2022-09-12T01:56:17.777Z,0.31
2022-09-12T01:57:18.721Z,0.22
2022-09-12T01:58:19.767Z,0.42
2022-09-12T01:59:20.725Z,0.16
2022-09-12T02:00:21.746Z,0.36
2022-09-12T02:01:22.812Z,0.17
2022-09-12T02:02:23.749Z,0.07
2022-09-12T02:03:24.784Z,0.31
2022-09-12T02:04:25.718Z,0.41
2022-09-12T02:05:26.748Z,0.1
2022-09-12T02:06:27.734Z,0.3
2022-09-12T02:07:28.730Z,0.32
2022-09-12T02:08:29.753Z,0.26
2022-09-12T02:09:30.739Z,0
2022-09-12T02:10:32.616Z,0
2022-09-12T02:11:32.743Z,0.48
2022-09-12T02:12:33.734Z,0.43
2022-09-12T02:13:34.814Z,0.44
2022-09-12T02:14:35.771Z,0.37
2022-09-12T02:15:36.827Z,0.26
2022-09-12T02:16:37.767Z,0.69
2022-09-12T02:17:38.773Z,0.55
2022-09-12T02:18:39.772Z,0.66
2022-09-12T02:19:40.747Z,0.63
2022-09-12T02:20:48.192Z,0.69
2022-09-12T02:21:42.782Z,0.63
2022-09-12T02:22:43.755Z,0.47
2022-09-12T02:23:44.776Z,0.45
2022-09-12T02:24:45.784Z,0.16
2022-09-12T02:25:47.095Z,0.28
2022-09-12T02:26:48.764Z,0.45
2022-09-12T02:27:49.772Z,0.22
2022-09-12T02:28:50.810Z,0.26
2022-09-12T02:29:51.780Z,0.36
2022-09-12T02:30:52.892Z,0.29
2022-09-12T02:31:53.783Z,0.38
2022-09-12T02:32:54.991Z,0.44
2022-09-12T02:33:56.782Z,0.6
2022-09-12T02:34:57.782Z,0.35
2022-09-12T02:35:58.794Z,0.36
2022-09-12T02:36:59.896Z,0.37
2022-09-12T02:38:01.849Z,0.31
2022-09-12T02:39:02.814Z,0.5
2022-09-12T02:40:04.093Z,0.34
2022-09-12T02:41:05.820Z,0.34
2022-09-12T02:42:06.817Z,0.29
2022-09-12T02:43:07.802Z,0.22
2022-09-12T02:44:08.817Z,0.27
2022-09-12T02:45:09.815Z,0.2
2022-09-12T02:46:10.826Z,0.3
2022-09-12T02:47:11.822Z,0.4
2022-09-12T02:48:13.577Z,0.41
2022-09-12T02:49:13.815Z,0.37
2022-09-12T02:50:14.806Z,0.29
2022-09-12T02:51:18.277Z,0.28
2022-09-12T02:52:16.824Z,0.15
2022-09-12T02:53:17.797Z,0.23
2022-09-12T02:54:18.801Z,0
2022-09-12T02:55:19.829Z,0
2022-09-12T02:56:20.812Z,0
2022-09-12T02:57:22.989Z,0.43
2022-09-12T02:58:22.809Z,0.17
2022-09-12T02:59:23.853Z,0
2022-09-12T03:00:24.821Z,0.15
2022-09-12T03:01:25.894Z,0
2022-09-12T03:02:26.842Z,0
2022-09-12T03:03:27.812Z,0.37
2022-09-12T03:04:28.838Z,0.33
2022-09-12T03:05:29.825Z,0.32
2022-09-12T03:06:30.838Z,0.45
2022-09-12T03:07:31.842Z,0.24
2022-09-12T03:08:32.821Z,0.34
2022-09-12T03:09:33.851Z,0.41
2022-09-12T03:10:34.816Z,0.41
2022-09-12T03:11:35.885Z,0.33
2022-09-12T03:12:36.853Z,0.31
2022-09-12T03:13:37.834Z,0.3
2022-09-12T03:14:38.869Z,0.25
2022-09-12T03:15:39.857Z,0.72
2022-09-12T03:16:40.896Z,0.59
2022-09-12T03:17:41.852Z,0.73
2022-09-12T03:18:42.840Z,0.56
2022-09-12T03:19:43.842Z,0.71
2022-09-12T03:20:44.908Z,0.53
2022-09-12T03:21:45.841Z,0.3
2022-09-12T03:22:50.539Z,0.11
2022-09-12T03:23:47.842Z,0.34
2022-09-12T03:24:48.863Z,0.46
2022-09-12T03:25:49.870Z,0.31
2022-09-12T03:26:50.846Z,0.33
2022-09-12T03:27:51.881Z,0.22
2022-09-12T03:28:52.860Z,0.69
2022-09-12T03:29:53.907Z,0.45
2022-09-12T03:30:54.934Z,0.3
2022-09-12T03:31:55.868Z,0.37
2022-09-12T03:32:56.886Z,0.48
2022-09-12T03:33:57.859Z,0.28
2022-09-12T03:34:58.870Z,0.44
2022-09-12T03:35:59.902Z,0.51
2022-09-12T03:37:00.866Z,0.09
2022-09-12T03:38:01.916Z,0.18
2022-09-12T03:39:02.891Z,0.11
2022-09-12T03:40:04.165Z,0.24
2022-09-12T03:41:05.895Z,0.13
2022-09-12T03:42:06.911Z,0.12
2022-09-12T03:43:07.887Z,0.3
2022-09-12T03:44:08.904Z,0.13
2022-09-12T03:45:10.018Z,0
2022-09-12T03:46:11.907Z,0
2022-09-12T03:47:12.899Z,0.09
2022-09-12T03:48:13.877Z,0.32
2022-09-12T03:49:14.938Z,0.31
2022-09-12T03:50:15.883Z,0.26
2022-09-12T03:51:16.881Z,0.32
2022-09-12T03:52:17.897Z,0.24
2022-09-12T03:53:18.918Z,0.21
2022-09-12T03:54:19.939Z,0.25
2022-09-12T03:55:20.887Z,0.35
2022-09-12T03:56:21.887Z,0.45
2022-09-12T03:57:22.881Z,0.42
2022-09-12T03:58:23.916Z,0.26
2022-09-12T03:59:24.930Z,0
2022-09-12T04:00:25.996Z,0.4
2022-09-12T04:01:26.915Z,0.26
2022-09-12T04:02:27.946Z,0.36
2022-09-12T04:03:28.904Z,0.48
2022-09-12T04:04:29.930Z,0.54
2022-09-12T04:05:30.934Z,0.71
2022-09-12T04:06:31.909Z,0.65
2022-09-12T04:07:32.924Z,0.71
2022-09-12T04:08:33.908Z,0.78
2022-09-12T04:09:34.918Z,0.58
2022-09-12T04:10:35.949Z,0.61
2022-09-12T04:11:37.002Z,0.26
2022-09-12T04:12:37.927Z,0.4
2022-09-12T04:13:38.928Z,0.54
2022-09-12T04:14:39.922Z,0.46
2022-09-12T04:15:40.940Z,0.66
2022-09-12T04:16:42.421Z,0.38
2022-09-12T04:17:43.935Z,0.43
2022-09-12T04:18:44.952Z,0.82
2022-09-12T04:19:45.942Z,0.53
2022-09-12T04:20:46.962Z,0.58
2022-09-12T04:21:47.929Z,0.54
2022-09-12T04:22:48.948Z,0.52
2022-09-12T04:23:49.935Z,0.32
2022-09-12T04:24:50.948Z,0.72
2022-09-12T04:25:52.015Z,0.6
2022-09-12T04:26:52.942Z,0.39
2022-09-12T04:27:53.937Z,0.36
2022-09-12T04:28:54.963Z,0.58
2022-09-12T04:29:55.956Z,0.48
2022-09-12T04:30:57.096Z,0.67
2022-09-12T04:31:57.978Z,0.61
2022-09-12T04:32:58.946Z,0.68
2022-09-12T04:33:59.958Z,0.65
2022-09-12T04:38:24.960Z,0.7
2022-09-12T04:39:25.956Z,0.63
2022-09-12T04:40:26.981Z,0.6
2022-09-12T04:41:27.979Z,0.55
2022-09-12T04:42:29.029Z,0.47
2022-09-12T04:43:29.980Z,0.49
2022-09-12T04:44:30.969Z,0.38
2022-09-12T04:45:32.031Z,0.27
2022-09-12T04:46:33.003Z,0.57
2022-09-12T04:47:33.999Z,0.5
2022-09-12T04:48:35.011Z,0.53
2022-09-12T04:49:35.971Z,0.56
2022-09-12T04:50:36.973Z,0.41
2022-09-12T04:51:38.019Z,0.22
2022-09-12T04:52:38.998Z,0.49
2022-09-12T04:53:39.988Z,0.47
2022-09-12T04:54:41.044Z,0.52
2022-09-12T04:55:42.181Z,0.44
2022-09-12T04:56:44.746Z,0.49
2022-09-12T04:57:46.040Z,0.43
2022-09-12T04:58:47.060Z,0.46
2022-09-12T04:59:48.030Z,0.61
2022-09-12T05:00:49.031Z,0.61
2022-09-12T05:01:50.161Z,0.55
2022-09-12T05:02:51.017Z,0.6
2022-09-12T05:03:52.093Z,0.48
2022-09-12T05:04:53.008Z,0.43
2022-09-12T05:05:56.404Z,0.55
2022-09-12T05:06:55.026Z,0.62
2022-09-12T05:07:56.010Z,0.69
2022-09-12T05:08:57.020Z,0.48
2022-09-12T05:09:58.082Z,0.58
2022-09-12T05:10:59.039Z,0.51
2022-09-12T05:12:04.044Z,0.7
2022-09-12T05:13:01.447Z,0.72
2022-09-12T05:14:03.010Z,0.7
2022-09-12T05:15:04.148Z,0.76
2022-09-12T05:16:06.051Z,0.53
2022-09-12T05:17:07.087Z,0.46
2022-09-12T05:18:08.122Z,0.98
2022-09-12T05:19:09.022Z,0.59
2022-09-12T05:20:10.047Z,0.42
2022-09-12T05:21:11.024Z,0.75
2022-09-12T05:22:12.088Z,0.69
2022-09-12T05:23:13.066Z,0.61
2022-09-12T05:24:14.228Z,0.79
2022-09-12T05:25:16.069Z,0.91
2022-09-12T05:26:17.042Z,0.72
2022-09-12T05:27:18.026Z,0.73
2022-09-12T05:28:19.084Z,0.58
2022-09-12T05:29:20.039Z,0.82
2022-09-12T05:30:21.064Z,0.5
2022-09-12T05:31:22.052Z,0.67
2022-09-12T05:32:23.065Z,0.82
2022-09-12T05:33:25.146Z,0.7
2022-09-12T05:34:25.086Z,0.65
2022-09-12T05:35:26.036Z,0.58
2022-09-12T05:36:27.188Z,0.45
2022-09-12T05:37:29.077Z,0.54
2022-09-12T05:38:30.045Z,0.58
2022-09-12T05:39:31.125Z,0.92
2022-09-12T05:40:32.073Z,0.77
2022-09-12T05:41:33.068Z,0.6
2022-09-12T05:42:34.068Z,0.91
2022-09-12T05:43:35.060Z,1.17
2022-09-12T05:44:36.156Z,0.53
2022-09-12T05:45:37.283Z,0.58
2022-09-12T05:46:39.475Z,0.4
2022-09-12T05:47:41.110Z,0.72
2022-09-12T05:48:42.189Z,1.01
2022-09-12T05:49:44.155Z,0.42
2022-09-12T05:50:46.094Z,0.63
2022-09-12T05:51:47.105Z,0.75
2022-09-12T05:52:48.149Z,0.64
2022-09-12T05:53:49.097Z,0.56
2022-09-12T05:54:50.167Z,1.1
2022-09-12T05:55:51.075Z,1.33
2022-09-12T05:56:52.119Z,0.75
2022-09-12T05:57:53.090Z,0.98
2022-09-12T05:58:55.207Z,1.18
2022-09-12T05:59:57.126Z,0.72
2022-09-12T06:00:58.205Z,0.42
2022-09-12T06:01:59.117Z,1.02
2022-09-12T06:03:00.188Z,0.89
2022-09-12T06:04:01.122Z,1.1
2022-09-12T06:05:02.147Z,0.75
2022-09-12T06:06:03.133Z,0.59
2022-09-12T06:07:04.170Z,0.53
2022-09-12T06:08:05.175Z,0.66
2022-09-12T06:09:06.103Z,0.25
2022-09-12T06:10:07.142Z,0.21
2022-09-12T06:11:08.176Z,0.32
2022-09-12T06:12:09.141Z,0.46
2022-09-12T06:13:10.149Z,0.66
2022-09-12T06:14:11.147Z,1.11
2022-09-12T06:15:12.212Z,1.08
2022-09-12T06:16:13.203Z,1.11
2022-09-12T06:17:14.471Z,0.62
2022-09-12T06:18:16.201Z,0.6
2022-09-12T06:19:17.121Z,1.01
2022-09-12T06:20:18.121Z,1.39
2022-09-12T06:21:19.384Z,1.01
2022-09-12T06:22:21.146Z,1.12
2022-09-12T06:23:22.230Z,0.99
2022-09-12T06:24:24.371Z,0.78
2022-09-12T06:25:26.188Z,0.5
2022-09-12T06:26:27.203Z,0.48
2022-09-12T06:27:28.138Z,0.63
2022-09-12T06:28:30.293Z,0.97
2022-09-12T06:29:32.187Z,1.49
2022-09-12T06:30:33.192Z,0.77
2022-09-12T06:31:34.473Z,0.66
2022-09-12T06:32:36.175Z,0.11
2022-09-12T06:33:37.249Z,0.88
2022-09-12T06:34:38.173Z,0.64
2022-09-12T06:35:39.280Z,1.61
2022-09-12T06:36:41.160Z,1.36
2022-09-12T06:37:42.153Z,0.96
2022-09-12T06:38:43.229Z,0.88
2022-09-12T06:39:44.203Z,1.44
2022-09-12T06:40:45.257Z,1.15
2022-09-12T06:41:46.148Z,0.91
2022-09-12T06:42:47.166Z,0.88
2022-09-12T06:43:49.814Z,1.01
2022-09-12T06:44:51.195Z,1.14
2022-09-12T06:45:52.278Z,0.8
2022-09-12T06:46:53.165Z,1.42
2022-09-12T06:47:54.490Z,1.17
2022-09-12T06:48:56.200Z,1.1
2022-09-12T06:49:57.470Z,0.88
2022-09-12T06:50:59.202Z,0.49
2022-09-12T06:52:00.223Z,1.41
2022-09-12T06:53:02.215Z,1
2022-09-12T06:54:03.205Z,1.59
2022-09-12T06:55:05.279Z,1.59
2022-09-12T06:56:06.719Z,1.5
2022-09-12T06:57:08.178Z,1.27
2022-09-12T06:58:09.443Z,1.33
2022-09-12T06:59:11.227Z,1.12
2022-09-12T07:00:12.330Z,0.95
2022-09-12T07:01:14.288Z,1.3
2022-09-12T07:02:15.516Z,0.74
2022-09-12T07:03:17.774Z,0.69
2022-09-12T07:04:19.363Z,1.31
2022-09-12T07:05:24.684Z,0.96
2022-09-12T07:06:26.230Z,1.03
2022-09-12T07:07:28.246Z,0.86
2022-09-12T07:08:30.772Z,0.91
2022-09-12T07:09:32.265Z,0.56
2022-09-12T07:10:33.839Z,1.08
2022-09-12T07:11:35.288Z,0.93
2022-09-12T07:12:36.746Z,1.87
2022-09-12T07:13:38.263Z,1.22
2022-09-12T07:14:39.274Z,1.02
2022-09-12T07:15:40.232Z,0.53
2022-09-12T07:16:41.350Z,0.85
2022-09-12T07:17:42.640Z,0.62
2022-09-12T07:18:44.286Z,0.47
2022-09-12T07:19:45.353Z,0.75
2022-09-12T07:20:46.688Z,0.63
2022-09-12T07:21:48.222Z,0.49
2022-09-12T07:22:49.302Z,0.89
2022-09-12T07:23:50.228Z,0.62
2022-09-12T07:24:51.412Z,0.78
2022-09-12T07:25:53.273Z,0.59
2022-09-12T07:26:54.296Z,0.82
2022-09-12T07:27:55.312Z,0.82
2022-09-12T07:29:08.195Z,0.69
2022-09-12T07:29:59.323Z,0.6
2022-09-12T07:31:01.304Z,0.43
2022-09-12T07:32:03.307Z,0.39
2022-09-12T07:33:05.236Z,0.52
2022-09-12T07:34:06.341Z,0.34
2022-09-12T07:35:08.637Z,0.7
2022-09-12T07:36:10.404Z,1.1
2022-09-12T07:37:12.256Z,1.01
2022-09-12T07:38:13.252Z,0.55
2022-09-12T07:39:14.283Z,0.68
2022-09-12T07:40:15.509Z,1.87
2022-09-12T07:41:17.337Z,0.74
2022-09-12T07:42:18.293Z,0.55
2022-09-12T07:43:19.276Z,0.68
2022-09-12T07:44:20.258Z,1.9
2022-09-12T07:45:21.287Z,1.25
2022-09-12T07:46:22.313Z,1.1
2022-09-12T07:47:23.270Z,0.91
2022-09-12T07:48:24.248Z,0.79
2022-09-12T07:49:25.258Z,1.71
2022-09-12T07:50:26.316Z,0.85
2022-09-12T07:51:27.305Z,0.45
2022-09-12T07:52:28.271Z,0.64
2022-09-12T07:53:29.301Z,1.06
2022-09-12T07:54:30.281Z,1.31
2022-09-12T07:55:31.315Z,1.41
2022-09-12T07:56:35.763Z,0.48
2022-09-12T07:57:33.364Z,0.63
2022-09-12T07:58:34.293Z,0.3
2022-09-12T07:59:51.858Z,0.8
2022-09-12T08:00:36.397Z,0.4
2022-09-12T08:01:37.420Z,0.73
2022-09-12T08:02:38.403Z,0.81
2022-09-12T08:03:39.342Z,1.31
2022-09-12T08:04:40.321Z,0.84
2022-09-12T08:05:41.364Z,1.14
2022-09-12T08:06:42.325Z,0.51
2022-09-12T08:07:43.291Z,0.64
2022-09-12T08:08:44.309Z,0.89
2022-09-12T08:09:45.361Z,0.74
2022-09-12T08:10:46.310Z,1.35
2022-09-12T08:11:47.344Z,1.26
2022-09-12T08:12:48.332Z,1.88
2022-09-12T08:13:53.042Z,0.8
2022-09-12T08:14:50.368Z,1.01
2022-09-12T08:15:51.363Z,1.04
2022-09-12T08:16:52.326Z,1.22
2022-09-12T08:17:53.343Z,1.33
2022-09-12T08:18:55.456Z,0.93
2022-09-12T08:19:57.372Z,0.5
2022-09-12T08:20:58.377Z,1.72
2022-09-12T08:21:59.322Z,1.21
2022-09-12T08:23:00.333Z,0.71
2022-09-12T08:24:01.335Z,1.03
2022-09-12T08:25:02.447Z,0.74
2022-09-12T08:26:06.254Z,0.84
2022-09-12T08:27:06.344Z,0.78
2022-09-12T08:28:07.330Z,0.8
2022-09-12T08:29:08.380Z,1.03
2022-09-12T08:30:09.384Z,0.94
2022-09-12T08:31:10.430Z,0.78
2022-09-12T08:32:11.362Z,0.76
2022-09-12T08:33:12.349Z,0.82
2022-09-12T08:34:13.340Z,1.25
2022-09-12T08:35:14.337Z,0.86
2022-09-12T08:36:15.441Z,1.55
2022-09-12T08:37:16.390Z,0.64
2022-09-12T08:38:17.349Z,0.74
2022-09-12T08:39:18.358Z,1.2
2022-09-12T08:40:19.497Z,1.25
2022-09-12T08:41:20.387Z,1.06
2022-09-12T08:42:21.455Z,1.29
2022-09-12T08:43:22.412Z,1.62
2022-09-12T08:44:23.393Z,2.27
2022-09-12T08:45:24.417Z,1.39
2022-09-12T08:46:25.695Z,0.89
2022-09-12T08:47:27.405Z,0.32
2022-09-12T08:48:28.373Z,0.5
2022-09-12T08:49:29.394Z,1.13
2022-09-12T08:50:30.364Z,0.64
2022-09-12T08:51:31.419Z,0.94
2022-09-12T08:52:32.600Z,0.54
2022-09-12T08:53:34.380Z,0.34
2022-09-12T08:54:35.395Z,1.07
2022-09-12T08:55:36.372Z,0.83
2022-09-12T08:56:37.412Z,0.92
2022-09-12T08:57:38.403Z,1.39
2022-09-12T08:58:39.422Z,0.79
2022-09-12T08:59:40.410Z,0.81
2022-09-12T09:00:41.408Z,2.64
2022-09-12T09:01:42.519Z,1.05
2022-09-12T09:02:43.520Z,1.06
2022-09-12T09:03:44.533Z,0.52
2022-09-12T09:04:45.398Z,1.15
2022-09-12T09:05:46.443Z,0.73
2022-09-12T09:06:47.452Z,0.48
2022-09-12T09:07:48.475Z,0.72
2022-09-12T09:08:49.437Z,1.12
2022-09-12T09:09:50.413Z,0.83
2022-09-12T09:10:51.450Z,0.67
2022-09-12T09:11:52.406Z,0.27
2022-09-12T09:12:53.472Z,0.4
2022-09-12T09:13:54.412Z,0.72
2022-09-12T09:14:55.419Z,1.01
2022-09-12T09:15:56.486Z,1.09
2022-09-12T09:16:57.415Z,1.94
2022-09-12T09:17:58.462Z,1.07
2022-09-12T09:18:59.435Z,0.87
2022-09-12T09:20:00.420Z,0.7
2022-09-12T09:21:01.428Z,1
2022-09-12T09:22:02.859Z,1.31
2022-09-12T09:23:04.433Z,1.13
2022-09-12T09:24:05.463Z,1.41
2022-09-12T09:25:06.473Z,1.41
2022-09-12T09:26:07.479Z,1.31
2022-09-12T09:27:23.822Z,2.02
2022-09-12T09:28:09.472Z,1.64
2022-09-12T09:29:10.427Z,1.14
2022-09-12T09:30:11.480Z,1.11
2022-09-12T09:31:12.481Z,0.99
2022-09-12T09:32:13.512Z,1.4
2022-09-12T09:33:14.472Z,1.45
2022-09-12T09:34:15.438Z,1.05
2022-09-12T09:35:16.472Z,1.24
2022-09-12T09:36:17.467Z,0.73
2022-09-12T09:37:18.513Z,1.01
2022-09-12T09:38:19.461Z,1.17
2022-09-12T09:39:20.494Z,1.22
2022-09-12T09:40:21.558Z,1.43
2022-09-12T09:41:22.500Z,1.74
2022-09-12T09:42:23.536Z,1.7
2022-09-12T09:43:24.469Z,1.31
2022-09-12T09:44:25.456Z,0.67
2022-09-12T09:45:26.460Z,0.3
2022-09-12T09:46:27.536Z,0.52
2022-09-12T09:47:28.545Z,0.54
2022-09-12T09:48:29.470Z,0.8
2022-09-12T09:49:30.468Z,1.03
2022-09-12T09:50:31.476Z,1.8
2022-09-12T09:51:32.536Z,1.64
2022-09-12T09:52:33.527Z,1.11
2022-09-12T09:53:34.558Z,1.17
2022-09-12T09:54:35.502Z,0.77
2022-09-12T09:55:36.541Z,0.66
2022-09-12T09:56:37.520Z,1.19
2022-09-12T09:57:38.483Z,1.02
2022-09-12T09:58:39.544Z,1.27
2022-09-12T09:59:40.563Z,1.94
2022-09-12T10:00:41.495Z,1.25
2022-09-12T10:01:42.520Z,1.41
2022-09-12T10:02:43.551Z,1.41
2022-09-12T10:03:46.620Z,1.58
2022-09-12T10:04:47.534Z,1.67
2022-09-12T10:05:48.509Z,1.35
2022-09-12T10:06:49.513Z,1.63
2022-09-12T10:07:50.585Z,1.5
2022-09-12T10:08:51.529Z,1.28
2022-09-12T10:09:52.541Z,0.48
2022-09-12T10:10:53.511Z,1.23
2022-09-12T10:11:54.606Z,1.87
2022-09-12T10:12:55.503Z,1.42
2022-09-12T10:13:56.558Z,1.3
2022-09-12T10:14:57.590Z,1
2022-09-12T10:15:58.598Z,2.07
2022-09-12T10:16:59.636Z,1.05
2022-09-12T10:18:01.552Z,1.84
2022-09-12T10:19:02.606Z,1.46
2022-09-12T10:20:20.252Z,1.42
2022-09-12T10:21:05.521Z,1.11
2022-09-12T10:22:06.569Z,0.73
2022-09-12T10:23:07.593Z,1.04
2022-09-12T10:24:08.530Z,1.49
2022-09-12T10:25:09.573Z,1.91
2022-09-12T10:26:10.539Z,2.15
2022-09-12T10:27:11.571Z,1.77
2022-09-12T10:28:12.540Z,2.02
2022-09-12T10:29:13.548Z,1.88
2022-09-12T10:30:14.735Z,1.42
2022-09-12T10:31:16.704Z,1.08
2022-09-12T10:32:17.582Z,0.98
2022-09-12T10:33:18.581Z,0.99
2022-09-12T10:34:19.583Z,1.22
2022-09-12T10:35:20.654Z,1.2
2022-09-12T10:36:21.582Z,0.99
2022-09-12T10:37:22.553Z,1.24
2022-09-12T10:38:23.594Z,1.68
2022-09-12T10:39:24.573Z,1.62
2022-09-12T10:40:25.638Z,1.24
2022-09-12T10:41:26.547Z,1.53
2022-09-12T10:42:27.634Z,1.35
2022-09-12T10:43:28.561Z,1.37
2022-09-12T10:44:29.579Z,1.31
2022-09-12T10:45:30.607Z,1.1
2022-09-12T10:46:31.635Z,1.68
2022-09-12T10:47:32.569Z,1.04
2022-09-12T10:48:33.567Z,1
2022-09-12T10:49:34.575Z,0.93
2022-09-12T10:50:35.610Z,0.98
2022-09-12T10:51:36.636Z,0.89
2022-09-12T10:52:37.581Z,1.42
2022-09-12T10:53:38.606Z,0.73
2022-09-12T10:54:39.589Z,0.62
2022-09-12T10:55:40.577Z,1.09
2022-09-12T10:56:41.662Z,2.01
2022-09-12T10:57:42.582Z,0.94
2022-09-12T10:58:43.598Z,0.76
2022-09-12T10:59:44.595Z,0.81
2022-09-12T11:00:45.594Z,0.64
2022-09-12T11:01:46.710Z,1.08
2022-09-12T11:02:47.638Z,1.1
2022-09-12T11:03:48.705Z,0.72
2022-09-12T11:04:49.604Z,1.27
2022-09-12T11:05:50.611Z,1.58
2022-09-12T11:06:51.666Z,1.23
2022-09-12T11:07:52.640Z,0.83
2022-09-12T11:08:53.683Z,0.73
2022-09-12T11:09:54.608Z,1.7
2022-09-12T11:10:55.621Z,0.48
2022-09-12T11:11:56.711Z,0.47
2022-09-12T11:12:57.642Z,0.34
2022-09-12T11:13:58.612Z,0.55
2022-09-12T11:14:59.649Z,0.56
2022-09-12T11:16:00.786Z,0.85
2022-09-12T11:17:01.687Z,0.8
2022-09-12T11:18:02.710Z,0.89
2022-09-12T11:19:03.635Z,0.77
2022-09-12T11:20:04.776Z,0.78
2022-09-12T11:21:06.646Z,0.7
2022-09-12T11:22:07.710Z,0.3
2022-09-12T11:23:08.663Z,0.56
2022-09-12T11:24:09.666Z,0.76
2022-09-12T11:25:10.661Z,0.68
2022-09-12T11:26:11.638Z,1.01
2022-09-12T11:27:13.109Z,0.62
2022-09-12T11:28:14.646Z,0.72
2022-09-12T11:29:15.642Z,0.81
2022-09-12T11:30:16.846Z,0.64
2022-09-12T11:31:18.704Z,0.48
2022-09-12T11:32:19.676Z,0.71
2022-09-12T11:33:20.750Z,0.61
2022-09-12T11:34:21.632Z,0.64
2022-09-12T11:35:22.697Z,0.46
2022-09-12T11:36:23.683Z,0.64
2022-09-12T11:37:24.659Z,0.84
2022-09-12T11:38:25.675Z,1.03
2022-09-12T11:39:26.677Z,0.58
2022-09-12T11:40:27.879Z,0.67
2022-09-12T11:41:29.679Z,0.73
2022-09-12T11:42:30.686Z,0.57
2022-09-12T11:43:31.943Z,0.58
2022-09-12T11:44:33.697Z,0.42
2022-09-12T11:45:34.741Z,0.55
2022-09-12T11:46:35.704Z,0.89
2022-09-12T11:47:36.840Z,0.44
2022-09-12T11:48:39.081Z,0.38
2022-09-12T11:49:40.745Z,0.37
2022-09-12T11:50:41.687Z,0.67
2022-09-12T11:51:43.612Z,0.89
2022-09-12T11:52:44.722Z,0.66
2022-09-12T11:53:45.772Z,0.67
2022-09-12T11:54:51.462Z,1.1
2022-09-12T11:55:48.865Z,0.94
2022-09-12T11:56:50.730Z,0.83
2022-09-12T11:57:51.720Z,0.55
2022-09-12T11:58:53.375Z,0.51
2022-09-12T11:59:54.729Z,0.98
2022-09-12T12:00:55.717Z,0.95
2022-09-12T12:01:56.727Z,0.94
2022-09-12T12:02:57.729Z,1.38
2022-09-12T12:03:58.760Z,0.26
2022-09-12T12:04:59.782Z,0.26
2022-09-12T12:06:00.774Z,1
2022-09-12T12:07:01.775Z,1.49
2022-09-12T12:08:02.853Z,1.29
2022-09-12T12:09:04.716Z,0.99
2022-09-12T12:10:05.836Z,0.85
2022-09-12T12:11:06.726Z,0.92
2022-09-12T12:12:07.857Z,0.22
2022-09-12T12:13:13.980Z,0.53
2022-09-12T12:14:10.727Z,0.22
2022-09-12T12:15:11.735Z,0.17
2022-09-12T12:16:12.818Z,1.26
2022-09-12T12:17:13.909Z,0.51
2022-09-12T12:18:15.772Z,0.63
2022-09-12T12:19:16.731Z,1.01
2022-09-12T12:20:17.881Z,0.98
2022-09-12T12:21:19.734Z,0.68
2022-09-12T12:22:20.745Z,1.03
2022-09-12T12:23:21.788Z,0.65
2022-09-12T12:24:22.739Z,0.5
2022-09-12T12:25:27.550Z,0.22
2022-09-12T12:26:24.793Z,0.22
2022-09-12T12:27:25.798Z,0.34
2022-09-12T12:28:26.797Z,0.25
2022-09-12T12:29:28.599Z,0.51
2022-09-12T12:30:29.757Z,0.53
2022-09-12T12:31:30.792Z,0.72
2022-09-12T12:32:31.766Z,0.75
2022-09-12T12:33:32.849Z,1.09
2022-09-12T12:34:34.044Z,1.02
2022-09-12T12:35:35.771Z,0.94
2022-09-12T12:36:36.824Z,0.61
2022-09-12T12:37:37.765Z,0.87
2022-09-12T12:38:38.816Z,0.91
2022-09-12T12:39:40.059Z,0.68
2022-09-12T12:40:41.807Z,0.88
2022-09-12T12:41:42.770Z,1.34
2022-09-12T12:42:43.816Z,0.92
2022-09-12T12:43:44.897Z,0.57
2022-09-12T12:44:45.821Z,0.79
2022-09-12T12:45:46.771Z,0.9
2022-09-12T12:46:47.788Z,0.63
2022-09-12T12:47:48.777Z,0.85
2022-09-12T12:48:49.785Z,1.08
2022-09-12T12:49:50.824Z,1.05
2022-09-12T12:50:51.768Z,1.08
2022-09-12T12:51:52.843Z,0.75
2022-09-12T12:52:54.030Z,0.89
2022-09-12T12:53:55.793Z,0.48
2022-09-12T12:54:56.850Z,0.96
2022-09-12T12:55:58.673Z,1.76
2022-09-12T12:56:59.832Z,0.86
2022-09-12T12:58:00.853Z,1.03
2022-09-12T12:59:01.790Z,0.64
2022-09-12T13:00:03.017Z,0.79
2022-09-12T13:01:05.191Z,0.8
2022-09-12T13:02:06.944Z,1.12
2022-09-12T13:03:08.814Z,0.93
2022-09-12T13:04:09.809Z,1.01
2022-09-12T13:05:10.806Z,0.6
2022-09-12T13:06:11.879Z,0.48
2022-09-12T13:07:12.839Z,0.89
2022-09-12T13:08:13.806Z,0.63
2022-09-12T13:09:14.809Z,0.93
2022-09-12T13:10:16.267Z,0.87
2022-09-12T13:11:17.863Z,0.77
2022-09-12T13:12:18.849Z,0.85
2022-09-12T13:13:20.573Z,0.18
2022-09-12T13:14:21.817Z,0.4
2022-09-12T13:15:22.825Z,0.81
2022-09-12T13:16:23.811Z,0.75
2022-09-12T13:17:24.854Z,0.91
2022-09-12T13:18:25.829Z,0.65
2022-09-12T13:19:27.963Z,1.1
2022-09-12T13:20:30.061Z,0.95
2022-09-12T13:21:30.838Z,0.96
2022-09-12T13:22:31.862Z,0.84
2022-09-12T13:28:20.965Z,0.53
2022-09-12T13:29:21.914Z,0.73
2022-09-12T13:30:23.033Z,0.93
2022-09-12T13:31:24.959Z,0.79
2022-09-12T13:32:25.893Z,0.79
2022-09-12T13:33:26.973Z,1.06
2022-09-12T13:34:28.871Z,0.51
2022-09-12T13:35:29.873Z,0.49
2022-09-12T13:36:31.086Z,1.07
2022-09-12T13:37:32.898Z,0.93
2022-09-12T13:38:33.902Z,1.32
2022-09-12T13:39:34.908Z,1.53
2022-09-12T13:40:35.899Z,1.29
2022-09-12T13:41:36.913Z,1.55
2022-09-12T13:42:37.878Z,0.72
2022-09-12T13:43:38.948Z,1.24
2022-09-12T13:44:39.954Z,1.39
2022-09-12T13:45:40.877Z,1.29
2022-09-12T13:46:41.888Z,0.48